PWSweather.com
Personal Weather Stations
Station Observations
ITROMSHA6
HarstadNO 9407

HarstadNO 9407

Lat: 68.7814767, Lon: 16.5297091

Elevation: 145

Station Type: Davis Vantage Pro2

High Low Average
Temperature 54.2°F12.3°C 39.7°F4.3°C 48.7°F9.3°C
Dew Point 46.2°F7.9°C 37.9°F3.3°C 42.6°F5.9°C
Winds 17.0 mph 27.4 kmh Calm Calm 5.0 mph SW8.0 kmh SW
Wind Gusts 22.0 mph35.4 kmh -- 2.0 mph3.2 kmh
Humidity 95% 62% 80%
Pressure 30.19 in1022.4 mb 30.11 in1019.6 mb -
Precipitation 0.02 in0.5 mm - -
Hour Temp Dew Point Humidity Winds Wind Gusts Pressure Precip Precip Rate Daily Precip Total
12:00 AM 40.4°F4.7°C 38.3°F3.5°C 92% 4.0 mph WSW6.4 kmh WSW -- 30.18 in1022.0 mb 0.00 in0.0 mm 0.00 in0.0 mm 0.00 in0.0 mm
12:05 AM 40.4°F4.7°C 38.3°F3.5°C 92% 1.0 mph WSW1.6 kmh WSW -- 30.18 in1022.0 mb 0.00 in0.0 mm 0.00 in0.0 mm 0.00 in0.0 mm
12:10 AM 40.3°F4.6°C 38.1°F3.4°C 92% 6.0 mph WSW9.7 kmh WSW 7.0 mph11.3 kmh 30.18 in1022.0 mb 0.00 in0.0 mm 0.00 in0.0 mm 0.00 in0.0 mm
12:15 AM 40.3°F4.6°C 38.5°F3.6°C 93% 7.0 mph SW11.3 kmh SW -- 30.18 in1022.0 mb 0.00 in0.0 mm 0.00 in0.0 mm 0.00 in0.0 mm
12:20 AM 40.4°F4.7°C 38.7°F3.7°C 93% 7.0 mph WSW11.3 kmh WSW -- 30.18 in1022.0 mb 0.00 in0.0 mm 0.00 in0.0 mm 0.00 in0.0 mm
12:25 AM 40.5°F4.7°C 38.7°F3.7°C 93% 6.0 mph WSW9.7 kmh WSW -- 30.18 in1022.0 mb 0.00 in0.0 mm 0.00 in0.0 mm 0.00 in0.0 mm
12:30 AM 40.5°F4.7°C 38.7°F3.7°C 93% 5.0 mph SW8.0 kmh SW -- 30.18 in1022.0 mb 0.00 in0.0 mm 0.00 in0.0 mm 0.00 in0.0 mm
12:35 AM 40.4°F4.7°C 38.7°F3.7°C 93% 5.0 mph WSW8.0 kmh WSW 8.0 mph12.9 kmh 30.18 in1022.0 mb 0.00 in0.0 mm 0.00 in0.0 mm 0.00 in0.0 mm
12:40 AM 40.4°F4.7°C 38.7°F3.7°C 93% 7.0 mph W11.3 kmh W -- 30.18 in1022.0 mb 0.00 in0.0 mm 0.00 in0.0 mm 0.00 in0.0 mm
12:45 AM 40.4°F4.7°C 38.7°F3.7°C 93% 5.0 mph WSW8.0 kmh WSW -- 30.18 in1022.0 mb 0.00 in0.0 mm 0.00 in0.0 mm 0.00 in0.0 mm
12:50 AM 40.3°F4.6°C 38.5°F3.6°C 93% 5.0 mph W8.0 kmh W -- 30.18 in1022.0 mb 0.00 in0.0 mm 0.00 in0.0 mm 0.00 in0.0 mm
12:55 AM 40.4°F4.7°C 38.7°F3.7°C 93% 8.0 mph W12.9 kmh W -- 30.18 in1022.0 mb 0.00 in0.0 mm 0.00 in0.0 mm 0.00 in0.0 mm
01:00 AM 40.4°F4.7°C 38.7°F3.7°C 93% 5.0 mph WSW8.0 kmh WSW 9.0 mph14.5 kmh 30.18 in1022.0 mb 0.00 in0.0 mm 0.00 in0.0 mm 0.00 in0.0 mm
01:05 AM 40.3°F4.6°C 38.1°F3.4°C 92% 8.0 mph W12.9 kmh W -- 30.18 in1022.0 mb 0.00 in0.0 mm 0.00 in0.0 mm 0.00 in0.0 mm
01:10 AM 40.2°F4.6°C 38.5°F3.6°C 93% 5.0 mph WSW8.0 kmh WSW -- 30.19 in1022.4 mb 0.00 in0.0 mm 0.00 in0.0 mm 0.00 in0.0 mm
01:15 AM 40.2°F4.6°C 38.5°F3.6°C 93% 5.0 mph WSW8.0 kmh WSW -- 30.18 in1022.0 mb 0.00 in0.0 mm 0.00 in0.0 mm 0.00 in0.0 mm
01:20 AM 40.2°F4.6°C 38.5°F3.6°C 93% 5.0 mph WSW8.0 kmh WSW -- 30.18 in1022.0 mb 0.00 in0.0 mm 0.00 in0.0 mm 0.00 in0.0 mm
01:25 AM 40.1°F4.5°C 38.3°F3.5°C 93% 4.0 mph WSW6.4 kmh WSW 9.0 mph14.5 kmh 30.18 in1022.0 mb 0.00 in0.0 mm 0.00 in0.0 mm 0.00 in0.0 mm
01:30 AM 40.1°F4.5°C 38.3°F3.5°C 93% 6.0 mph WSW9.7 kmh WSW -- 30.18 in1022.0 mb 0.00 in0.0 mm 0.00 in0.0 mm 0.00 in0.0 mm
01:35 AM 40.2°F4.6°C 38.5°F3.6°C 93% 6.0 mph W9.7 kmh W -- 30.18 in1022.0 mb 0.00 in0.0 mm 0.00 in0.0 mm 0.00 in0.0 mm
01:40 AM 40.2°F4.6°C 38.5°F3.6°C 93% 7.0 mph WSW11.3 kmh WSW -- 30.18 in1022.0 mb 0.00 in0.0 mm 0.00 in0.0 mm 0.00 in0.0 mm
01:45 AM 40.2°F4.6°C 38.5°F3.6°C 93% 5.0 mph WSW8.0 kmh WSW -- 30.18 in1022.0 mb 0.00 in0.0 mm 0.00 in0.0 mm 0.00 in0.0 mm
01:50 AM 40.2°F4.6°C 38.5°F3.6°C 93% 5.0 mph WSW8.0 kmh WSW 8.0 mph12.9 kmh 30.18 in1022.0 mb 0.00 in0.0 mm 0.00 in0.0 mm 0.00 in0.0 mm
01:55 AM 40.2°F4.6°C 38.5°F3.6°C 93% 5.0 mph SW8.0 kmh SW -- 30.19 in1022.4 mb 0.00 in0.0 mm 0.00 in0.0 mm 0.00 in0.0 mm
02:00 AM 40.2°F4.6°C 38.5°F3.6°C 93% 4.0 mph W6.4 kmh W -- 30.18 in1022.0 mb 0.00 in0.0 mm 0.00 in0.0 mm 0.00 in0.0 mm
02:05 AM 40.2°F4.6°C 38.5°F3.6°C 93% 4.0 mph WSW6.4 kmh WSW -- 30.19 in1022.4 mb 0.00 in0.0 mm 0.00 in0.0 mm 0.00 in0.0 mm
02:10 AM 40.3°F4.6°C 38.5°F3.6°C 93% 6.0 mph W9.7 kmh W -- 30.19 in1022.4 mb 0.00 in0.0 mm 0.00 in0.0 mm 0.00 in0.0 mm
02:15 AM 40.6°F4.8°C 38.8°F3.8°C 93% 4.0 mph WSW6.4 kmh WSW 9.0 mph14.5 kmh 30.19 in1022.4 mb 0.00 in0.0 mm 0.00 in0.0 mm 0.00 in0.0 mm
02:20 AM 40.7°F4.8°C 38.8°F3.8°C 93% 7.0 mph W11.3 kmh W -- 30.19 in1022.4 mb 0.00 in0.0 mm 0.00 in0.0 mm 0.00 in0.0 mm
02:25 AM 40.7°F4.8°C 38.8°F3.8°C 93% 4.0 mph W6.4 kmh W -- 30.18 in1022.0 mb 0.00 in0.0 mm 0.00 in0.0 mm 0.00 in0.0 mm
02:30 AM 40.4°F4.7°C 38.7°F3.7°C 93% 7.0 mph SW11.3 kmh SW -- 30.18 in1022.0 mb 0.00 in0.0 mm 0.00 in0.0 mm 0.00 in0.0 mm
02:35 AM 40.2°F4.6°C 38.5°F3.6°C 93% 6.0 mph WSW9.7 kmh WSW -- 30.18 in1022.0 mb 0.00 in0.0 mm 0.00 in0.0 mm 0.00 in0.0 mm
02:40 AM 40.1°F4.5°C 38.3°F3.5°C 93% 6.0 mph WSW9.7 kmh WSW 8.0 mph12.9 kmh 30.18 in1022.0 mb 0.00 in0.0 mm 0.00 in0.0 mm 0.00 in0.0 mm
02:45 AM 40.1°F4.5°C 38.3°F3.5°C 93% 7.0 mph WSW11.3 kmh WSW -- 30.18 in1022.0 mb 0.00 in0.0 mm 0.00 in0.0 mm 0.00 in0.0 mm
02:50 AM 40.2°F4.6°C 38.5°F3.6°C 93% 6.0 mph WSW9.7 kmh WSW -- 30.18 in1022.0 mb 0.00 in0.0 mm 0.00 in0.0 mm 0.00 in0.0 mm
02:55 AM 40.2°F4.6°C 38.5°F3.6°C 93% 8.0 mph W12.9 kmh W -- 30.18 in1022.0 mb 0.00 in0.0 mm 0.00 in0.0 mm 0.00 in0.0 mm
03:00 AM 39.9°F4.4°C 38.1°F3.4°C 93% 4.0 mph SW6.4 kmh SW -- 30.18 in1022.0 mb 0.00 in0.0 mm 0.00 in0.0 mm 0.00 in0.0 mm
03:05 AM 39.8°F4.3°C 37.9°F3.3°C 93% 4.0 mph WSW6.4 kmh WSW 8.0 mph12.9 kmh 30.18 in1022.0 mb 0.00 in0.0 mm 0.00 in0.0 mm 0.00 in0.0 mm
03:10 AM 39.8°F4.3°C 37.9°F3.3°C 93% 7.0 mph WSW11.3 kmh WSW -- 30.18 in1022.0 mb 0.00 in0.0 mm 0.00 in0.0 mm 0.00 in0.0 mm
03:15 AM 40.0°F4.4°C 38.1°F3.4°C 93% 5.0 mph WSW8.0 kmh WSW -- 30.18 in1022.0 mb 0.00 in0.0 mm 0.00 in0.0 mm 0.00 in0.0 mm
03:20 AM 40.1°F4.5°C 38.3°F3.5°C 93% 6.0 mph SW9.7 kmh SW -- 30.18 in1022.0 mb 0.00 in0.0 mm 0.00 in0.0 mm 0.00 in0.0 mm
03:25 AM 40.1°F4.5°C 38.3°F3.5°C 93% 4.0 mph WSW6.4 kmh WSW -- 30.18 in1022.0 mb 0.00 in0.0 mm 0.00 in0.0 mm 0.00 in0.0 mm
03:30 AM 40.3°F4.6°C 38.7°F3.7°C 94% 5.0 mph WSW8.0 kmh WSW 7.0 mph11.3 kmh 30.18 in1022.0 mb 0.00 in0.0 mm 0.00 in0.0 mm 0.00 in0.0 mm
03:35 AM 40.4°F4.7°C 38.8°F3.8°C 94% 4.0 mph SW6.4 kmh SW -- 30.18 in1022.0 mb 0.00 in0.0 mm 0.00 in0.0 mm 0.00 in0.0 mm
03:40 AM 40.2°F4.6°C 38.7°F3.7°C 94% 4.0 mph SSW6.4 kmh SSW -- 30.18 in1022.0 mb 0.00 in0.0 mm 0.00 in0.0 mm 0.00 in0.0 mm
03:45 AM 40.5°F4.7°C 38.8°F3.8°C 94% 4.0 mph WSW6.4 kmh WSW -- 30.18 in1022.0 mb 0.00 in0.0 mm 0.00 in0.0 mm 0.00 in0.0 mm
03:50 AM 40.5°F4.7°C 38.8°F3.8°C 94% 5.0 mph WSW8.0 kmh WSW -- 30.18 in1022.0 mb 0.00 in0.0 mm 0.00 in0.0 mm 0.00 in0.0 mm
03:55 AM 40.4°F4.7°C 38.8°F3.8°C 94% 3.0 mph WSW4.8 kmh WSW 7.0 mph11.3 kmh 30.18 in1022.0 mb 0.00 in0.0 mm 0.00 in0.0 mm 0.00 in0.0 mm
04:00 AM 40.3°F4.6°C 38.7°F3.7°C 94% 3.0 mph SW4.8 kmh SW -- 30.18 in1022.0 mb 0.00 in0.0 mm 0.00 in0.0 mm 0.00 in0.0 mm
04:05 AM 40.4°F4.7°C 38.8°F3.8°C 94% 4.0 mph WSW6.4 kmh WSW -- 30.18 in1022.0 mb 0.00 in0.0 mm 0.00 in0.0 mm 0.00 in0.0 mm
04:10 AM 40.4°F4.7°C 38.8°F3.8°C 94% 1.0 mph WSW1.6 kmh WSW -- 30.18 in1022.0 mb 0.00 in0.0 mm 0.00 in0.0 mm 0.00 in0.0 mm
04:15 AM 40.2°F4.6°C 38.7°F3.7°C 94% 1.0 mph WSW1.6 kmh WSW -- 30.18 in1022.0 mb 0.00 in0.0 mm 0.00 in0.0 mm 0.00 in0.0 mm
04:20 AM 40.2°F4.6°C 38.7°F3.7°C 94% 3.0 mph SW4.8 kmh SW 4.0 mph6.4 kmh 30.18 in1022.0 mb 0.00 in0.0 mm 0.00 in0.0 mm 0.00 in0.0 mm
04:25 AM 40.3°F4.6°C 38.7°F3.7°C 94% 5.0 mph WSW8.0 kmh WSW -- 30.18 in1022.0 mb 0.00 in0.0 mm 0.00 in0.0 mm 0.00 in0.0 mm
04:30 AM 40.1°F4.5°C 38.5°F3.6°C 94% 3.0 mph WSW4.8 kmh WSW -- 30.18 in1022.0 mb 0.00 in0.0 mm 0.00 in0.0 mm 0.00 in0.0 mm
04:35 AM 40.2°F4.6°C 38.7°F3.7°C 94% 5.0 mph W8.0 kmh W -- 30.18 in1022.0 mb 0.00 in0.0 mm 0.00 in0.0 mm 0.00 in0.0 mm
04:40 AM 40.0°F4.4°C 38.3°F3.5°C 94% 4.0 mph SW6.4 kmh SW -- 30.18 in1022.0 mb 0.00 in0.0 mm 0.00 in0.0 mm 0.00 in0.0 mm
04:45 AM 39.9°F4.4°C 38.3°F3.5°C 94% 2.0 mph SW3.2 kmh SW 6.0 mph9.7 kmh 30.18 in1022.0 mb 0.00 in0.0 mm 0.00 in0.0 mm 0.00 in0.0 mm
04:50 AM 39.8°F4.3°C 38.1°F3.4°C 94% 5.0 mph WSW8.0 kmh WSW -- 30.18 in1022.0 mb 0.00 in0.0 mm 0.00 in0.0 mm 0.00 in0.0 mm
04:55 AM 39.8°F4.3°C 38.1°F3.4°C 94% 4.0 mph WSW6.4 kmh WSW -- 30.18 in1022.0 mb 0.00 in0.0 mm 0.00 in0.0 mm 0.00 in0.0 mm
05:00 AM 39.7°F4.3°C 38.1°F3.4°C 94% 6.0 mph WSW9.7 kmh WSW -- 30.18 in1022.0 mb 0.00 in0.0 mm 0.00 in0.0 mm 0.00 in0.0 mm
05:05 AM 40.0°F4.4°C 38.3°F3.5°C 94% 5.0 mph WSW8.0 kmh WSW -- 30.18 in1022.0 mb 0.00 in0.0 mm 0.00 in0.0 mm 0.00 in0.0 mm
05:10 AM 40.4°F4.7°C 39.2°F4.0°C 95% 5.0 mph WSW8.0 kmh WSW 7.0 mph11.3 kmh 30.18 in1022.0 mb 0.00 in0.0 mm 0.00 in0.0 mm 0.00 in0.0 mm
05:15 AM 40.5°F4.7°C 38.8°F3.8°C 94% 5.0 mph WSW8.0 kmh WSW -- 30.18 in1022.0 mb 0.00 in0.0 mm 0.00 in0.0 mm 0.00 in0.0 mm
05:20 AM 40.2°F4.6°C 38.7°F3.7°C 94% 3.0 mph WSW4.8 kmh WSW -- 30.18 in1022.0 mb 0.00 in0.0 mm 0.00 in0.0 mm 0.00 in0.0 mm
05:25 AM 40.3°F4.6°C 38.7°F3.7°C 94% 3.0 mph WSW4.8 kmh WSW -- 30.18 in1022.0 mb 0.00 in0.0 mm 0.00 in0.0 mm 0.00 in0.0 mm
05:30 AM 40.3°F4.6°C 38.7°F3.7°C 94% 4.0 mph SW6.4 kmh SW -- 30.18 in1022.0 mb 0.00 in0.0 mm 0.00 in0.0 mm 0.00 in0.0 mm
05:35 AM 40.8°F4.9°C 39.2°F4.0°C 94% 3.0 mph WSW4.8 kmh WSW 5.0 mph8.0 kmh 30.18 in1022.0 mb 0.00 in0.0 mm 0.00 in0.0 mm 0.00 in0.0 mm
05:40 AM 41.6°F5.3°C 40.3°F4.6°C 95% 2.0 mph WSW3.2 kmh WSW -- 30.18 in1022.0 mb 0.00 in0.0 mm 0.00 in0.0 mm 0.00 in0.0 mm
05:45 AM 42.0°F5.6°C 40.5°F4.7°C 94% 2.0 mph WSW3.2 kmh WSW -- 30.18 in1022.0 mb 0.00 in0.0 mm 0.00 in0.0 mm 0.00 in0.0 mm
05:50 AM 42.2°F5.7°C 40.6°F4.8°C 94% 1.0 mph WSW1.6 kmh WSW -- 30.18 in1022.0 mb 0.00 in0.0 mm 0.00 in0.0 mm 0.00 in0.0 mm
05:55 AM 42.4°F5.8°C 40.8°F4.9°C 94% Calm Calm -- 30.18 in1022.0 mb 0.00 in0.0 mm 0.00 in0.0 mm 0.00 in0.0 mm
06:00 AM 42.5°F5.8°C 40.8°F4.9°C 94% Calm Calm 3.0 mph4.8 kmh 30.18 in1022.0 mb 0.00 in0.0 mm 0.00 in0.0 mm 0.00 in0.0 mm
06:05 AM 42.6°F5.9°C 41.0°F5.0°C 94% Calm Calm -- 30.18 in1022.0 mb 0.00 in0.0 mm 0.00 in0.0 mm 0.00 in0.0 mm
06:10 AM 43.0°F6.1°C 41.4°F5.2°C 94% Calm Calm -- 30.18 in1022.0 mb 0.00 in0.0 mm 0.00 in0.0 mm 0.00 in0.0 mm
06:15 AM 43.2°F6.2°C 41.5°F5.3°C 94% Calm Calm -- 30.18 in1022.0 mb 0.00 in0.0 mm 0.00 in0.0 mm 0.00 in0.0 mm
06:20 AM 43.4°F6.3°C 41.7°F5.4°C 94% Calm Calm -- 30.18 in1022.0 mb 0.00 in0.0 mm 0.00 in0.0 mm 0.00 in0.0 mm
06:25 AM 43.5°F6.4°C 41.7°F5.4°C 93% Calm Calm -- 30.18 in1022.0 mb 0.00 in0.0 mm 0.00 in0.0 mm 0.00 in0.0 mm
06:30 AM 43.7°F6.5°C 41.9°F5.5°C 93% Calm Calm -- 30.18 in1022.0 mb 0.00 in0.0 mm 0.00 in0.0 mm 0.00 in0.0 mm
06:35 AM 43.6°F6.4°C 41.7°F5.4°C 93% Calm Calm -- 30.18 in1022.0 mb 0.00 in0.0 mm 0.00 in0.0 mm 0.00 in0.0 mm
06:40 AM 43.7°F6.5°C 41.9°F5.5°C 93% 1.0 mph WSW1.6 kmh WSW -- 30.18 in1022.0 mb 0.00 in0.0 mm 0.00 in0.0 mm 0.00 in0.0 mm
06:45 AM 43.7°F6.5°C 41.9°F5.5°C 93% 2.0 mph WSW3.2 kmh WSW -- 30.18 in1022.0 mb 0.00 in0.0 mm 0.00 in0.0 mm 0.00 in0.0 mm
06:50 AM 43.8°F6.6°C 41.9°F5.5°C 93% 1.0 mph WSW1.6 kmh WSW 3.0 mph4.8 kmh 30.17 in1021.7 mb 0.00 in0.0 mm 0.00 in0.0 mm 0.00 in0.0 mm
06:55 AM 44.1°F6.7°C 42.4°F5.8°C 94% Calm Calm -- 30.17 in1021.7 mb 0.00 in0.0 mm 0.00 in0.0 mm 0.00 in0.0 mm
07:00 AM 44.9°F7.2°C 43.3°F6.3°C 94% Calm Calm -- 30.17 in1021.7 mb 0.00 in0.0 mm 0.00 in0.0 mm 0.00 in0.0 mm
07:05 AM 45.5°F7.5°C 43.9°F6.6°C 94% Calm Calm -- 30.17 in1021.7 mb 0.00 in0.0 mm 0.00 in0.0 mm 0.00 in0.0 mm
07:10 AM 45.8°F7.7°C 43.9°F6.6°C 93% Calm Calm -- 30.17 in1021.7 mb 0.00 in0.0 mm 0.00 in0.0 mm 0.00 in0.0 mm
07:15 AM 46.3°F7.9°C 44.2°F6.8°C 93% Calm Calm 2.0 mph3.2 kmh 30.17 in1021.7 mb 0.00 in0.0 mm 0.00 in0.0 mm 0.00 in0.0 mm
07:20 AM 46.6°F8.1°C 44.6°F7.0°C 93% Calm Calm -- 30.17 in1021.7 mb 0.00 in0.0 mm 0.00 in0.0 mm 0.00 in0.0 mm
07:25 AM 46.9°F8.3°C 44.8°F7.1°C 92% Calm Calm -- 30.17 in1021.7 mb 0.00 in0.0 mm 0.00 in0.0 mm 0.00 in0.0 mm
07:30 AM 47.2°F8.4°C 44.6°F7.0°C 91% Calm Calm -- 30.17 in1021.7 mb 0.00 in0.0 mm 0.00 in0.0 mm 0.00 in0.0 mm
07:35 AM 47.2°F8.4°C 44.6°F7.0°C 91% 1.0 mph SW1.6 kmh SW -- 30.17 in1021.7 mb 0.00 in0.0 mm 0.00 in0.0 mm 0.00 in0.0 mm
07:40 AM 47.1°F8.4°C 44.4°F6.9°C 90% 1.0 mph SSW1.6 kmh SSW 3.0 mph4.8 kmh 30.17 in1021.7 mb 0.00 in0.0 mm 0.00 in0.0 mm 0.00 in0.0 mm
07:45 AM 47.3°F8.5°C 44.8°F7.1°C 91% 1.0 mph SSW1.6 kmh SSW -- 30.16 in1021.3 mb 0.00 in0.0 mm 0.00 in0.0 mm 0.00 in0.0 mm
07:50 AM 47.4°F8.6°C 45.0°F7.2°C 91% Calm Calm -- 30.16 in1021.3 mb 0.00 in0.0 mm 0.00 in0.0 mm 0.00 in0.0 mm
07:55 AM 47.9°F8.8°C 45.3°F7.4°C 91% Calm Calm -- 30.16 in1021.3 mb 0.00 in0.0 mm 0.00 in0.0 mm 0.00 in0.0 mm
08:00 AM 48.6°F9.2°C 45.7°F7.6°C 90% Calm Calm -- 30.16 in1021.3 mb 0.00 in0.0 mm 0.00 in0.0 mm 0.00 in0.0 mm
08:05 AM 49.2°F9.6°C 46.2°F7.9°C 89% Calm Calm 1.0 mph1.6 kmh 30.16 in1021.3 mb 0.00 in0.0 mm 0.00 in0.0 mm 0.00 in0.0 mm
08:10 AM 49.3°F9.6°C 45.5°F7.5°C 87% 4.0 mph SE6.4 kmh SE -- 30.16 in1021.3 mb 0.00 in0.0 mm 0.00 in0.0 mm 0.00 in0.0 mm
08:15 AM 49.2°F9.6°C 45.5°F7.5°C 87% 1.0 mph SE1.6 kmh SE -- 30.16 in1021.3 mb 0.00 in0.0 mm 0.00 in0.0 mm 0.00 in0.0 mm
08:20 AM 49.7°F9.8°C 45.9°F7.7°C 87% 2.0 mph S3.2 kmh S -- 30.16 in1021.3 mb 0.00 in0.0 mm 0.00 in0.0 mm 0.00 in0.0 mm
08:25 AM 49.7°F9.8°C 45.7°F7.6°C 86% 2.0 mph S3.2 kmh S -- 30.16 in1021.3 mb 0.00 in0.0 mm 0.00 in0.0 mm 0.00 in0.0 mm
08:30 AM 49.7°F9.8°C 45.7°F7.6°C 86% 2.0 mph SE3.2 kmh SE 6.0 mph9.7 kmh 30.15 in1021.0 mb 0.00 in0.0 mm 0.00 in0.0 mm 0.00 in0.0 mm
08:35 AM 49.7°F9.8°C 45.7°F7.6°C 86% 1.0 mph ESE1.6 kmh ESE -- 30.15 in1021.0 mb 0.00 in0.0 mm 0.00 in0.0 mm 0.00 in0.0 mm
08:40 AM 49.9°F9.9°C 45.9°F7.7°C 86% 1.0 mph SSE1.6 kmh SSE -- 30.15 in1021.0 mb 0.00 in0.0 mm 0.00 in0.0 mm 0.00 in0.0 mm
08:45 AM 49.8°F9.9°C 45.5°F7.5°C 85% 1.0 mph S1.6 kmh S -- 30.15 in1021.0 mb 0.00 in0.0 mm 0.00 in0.0 mm 0.00 in0.0 mm
08:50 AM 49.9°F9.9°C 45.9°F7.7°C 86% 2.0 mph SSE3.2 kmh SSE -- 30.15 in1021.0 mb 0.00 in0.0 mm 0.00 in0.0 mm 0.00 in0.0 mm
08:55 AM 50.0°F10.0°C 45.7°F7.6°C 85% 5.0 mph ESE8.0 kmh ESE 7.0 mph11.3 kmh 30.15 in1021.0 mb 0.00 in0.0 mm 0.00 in0.0 mm 0.00 in0.0 mm
09:00 AM 50.0°F10.0°C 45.7°F7.6°C 85% 1.0 mph E1.6 kmh E -- 30.15 in1021.0 mb 0.00 in0.0 mm 0.00 in0.0 mm 0.00 in0.0 mm
09:05 AM 50.2°F10.1°C 46.2°F7.9°C 86% 1.0 mph E1.6 kmh E -- 30.15 in1021.0 mb 0.00 in0.0 mm 0.00 in0.0 mm 0.00 in0.0 mm
09:10 AM 50.4°F10.2°C 46.0°F7.8°C 85% Calm Calm -- 30.15 in1021.0 mb 0.00 in0.0 mm 0.00 in0.0 mm 0.00 in0.0 mm
09:15 AM 50.6°F10.3°C 45.5°F7.5°C 83% Calm Calm -- 30.15 in1021.0 mb 0.00 in0.0 mm 0.00 in0.0 mm 0.00 in0.0 mm
09:20 AM 50.9°F10.5°C 45.3°F7.4°C 81% 5.0 mph S8.0 kmh S 9.0 mph14.5 kmh 30.15 in1021.0 mb 0.00 in0.0 mm 0.00 in0.0 mm 0.00 in0.0 mm
09:25 AM 51.2°F10.7°C 45.0°F7.2°C 79% 7.0 mph SW11.3 kmh SW -- 30.14 in1020.7 mb 0.00 in0.0 mm 0.00 in0.0 mm 0.00 in0.0 mm
09:30 AM 51.4°F10.8°C 44.8°F7.1°C 78% 6.0 mph SSW9.7 kmh SSW -- 30.15 in1021.0 mb 0.00 in0.0 mm 0.00 in0.0 mm 0.00 in0.0 mm
09:35 AM 51.6°F10.9°C 45.0°F7.2°C 78% 8.0 mph SSW12.9 kmh SSW -- 30.15 in1021.0 mb 0.00 in0.0 mm 0.00 in0.0 mm 0.00 in0.0 mm
09:40 AM 51.8°F11.0°C 44.4°F6.9°C 76% 11.0 mph SW17.7 kmh SW -- 30.15 in1021.0 mb 0.00 in0.0 mm 0.00 in0.0 mm 0.00 in0.0 mm
09:45 AM 52.0°F11.1°C 44.2°F6.8°C 75% 6.0 mph SW9.7 kmh SW 16.0 mph25.7 kmh 30.14 in1020.7 mb 0.00 in0.0 mm 0.00 in0.0 mm 0.00 in0.0 mm
09:50 AM 52.2°F11.2°C 45.1°F7.3°C 77% 8.0 mph SSW12.9 kmh SSW -- 30.14 in1020.7 mb 0.00 in0.0 mm 0.00 in0.0 mm 0.00 in0.0 mm
09:55 AM 52.0°F11.1°C 45.7°F7.6°C 79% 6.0 mph SW9.7 kmh SW -- 30.14 in1020.7 mb 0.00 in0.0 mm 0.00 in0.0 mm 0.00 in0.0 mm
10:00 AM 51.5°F10.8°C 45.5°F7.5°C 80% 2.0 mph WNW3.2 kmh WNW -- 30.14 in1020.7 mb 0.00 in0.0 mm 0.00 in0.0 mm 0.00 in0.0 mm
10:05 AM 51.3°F10.7°C 45.7°F7.6°C 81% 4.0 mph S6.4 kmh S -- 30.14 in1020.7 mb 0.00 in0.0 mm 0.00 in0.0 mm 0.00 in0.0 mm
10:10 AM 51.4°F10.8°C 46.2°F7.9°C 82% 1.0 mph SW1.6 kmh SW 10.0 mph16.1 kmh 30.14 in1020.7 mb 0.00 in0.0 mm 0.00 in0.0 mm 0.00 in0.0 mm
10:15 AM 51.6°F10.9°C 45.7°F7.6°C 80% 2.0 mph SSW3.2 kmh SSW -- 30.15 in1021.0 mb 0.00 in0.0 mm 0.00 in0.0 mm 0.00 in0.0 mm
10:20 AM 51.6°F10.9°C 45.7°F7.6°C 80% 5.0 mph S8.0 kmh S -- 30.15 in1021.0 mb 0.00 in0.0 mm 0.00 in0.0 mm 0.00 in0.0 mm
10:25 AM 51.7°F10.9°C 45.7°F7.6°C 80% Calm Calm -- 30.15 in1021.0 mb 0.00 in0.0 mm 0.00 in0.0 mm 0.00 in0.0 mm
10:30 AM 51.9°F11.1°C 46.0°F7.8°C 80% 2.0 mph WNW3.2 kmh WNW -- 30.15 in1021.0 mb 0.00 in0.0 mm 0.00 in0.0 mm 0.00 in0.0 mm
10:35 AM 52.0°F11.1°C 45.3°F7.4°C 78% 5.0 mph SW8.0 kmh SW 6.0 mph9.7 kmh 30.15 in1021.0 mb 0.00 in0.0 mm 0.00 in0.0 mm 0.00 in0.0 mm
10:40 AM 52.2°F11.2°C 44.8°F7.1°C 76% 3.0 mph S4.8 kmh S -- 30.15 in1021.0 mb 0.00 in0.0 mm 0.00 in0.0 mm 0.00 in0.0 mm
10:45 AM 52.3°F11.3°C 44.6°F7.0°C 75% 8.0 mph WSW12.9 kmh WSW -- 30.15 in1021.0 mb 0.00 in0.0 mm 0.00 in0.0 mm 0.00 in0.0 mm
10:50 AM 52.4°F11.3°C 44.2°F6.8°C 74% 4.0 mph SSW6.4 kmh SSW -- 30.15 in1021.0 mb 0.00 in0.0 mm 0.00 in0.0 mm 0.00 in0.0 mm
10:55 AM 52.6°F11.4°C 44.8°F7.1°C 75% 9.0 mph WSW14.5 kmh WSW -- 30.15 in1021.0 mb 0.00 in0.0 mm 0.00 in0.0 mm 0.00 in0.0 mm
11:00 AM 52.6°F11.4°C 44.1°F6.7°C 73% 3.0 mph SW4.8 kmh SW 9.0 mph14.5 kmh 30.15 in1021.0 mb 0.00 in0.0 mm 0.00 in0.0 mm 0.00 in0.0 mm
11:05 AM 52.6°F11.4°C 44.4°F6.9°C 74% 6.0 mph WSW9.7 kmh WSW -- 30.15 in1021.0 mb 0.00 in0.0 mm 0.00 in0.0 mm 0.00 in0.0 mm
11:10 AM 52.5°F11.4°C 44.1°F6.7°C 73% 4.0 mph SW6.4 kmh SW -- 30.15 in1021.0 mb 0.00 in0.0 mm 0.00 in0.0 mm 0.00 in0.0 mm
11:15 AM 52.5°F11.4°C 44.1°F6.7°C 73% 7.0 mph WSW11.3 kmh WSW -- 30.15 in1021.0 mb 0.00 in0.0 mm 0.00 in0.0 mm 0.00 in0.0 mm
11:20 AM 52.5°F11.4°C 44.1°F6.7°C 73% 2.0 mph S3.2 kmh S -- 30.15 in1021.0 mb 0.00 in0.0 mm 0.00 in0.0 mm 0.00 in0.0 mm
11:25 AM 52.6°F11.4°C 44.1°F6.7°C 73% 4.0 mph SW6.4 kmh SW 8.0 mph12.9 kmh 30.15 in1021.0 mb 0.00 in0.0 mm 0.00 in0.0 mm 0.00 in0.0 mm
11:30 AM 52.7°F11.5°C 44.2°F6.8°C 73% 1.0 mph SW1.6 kmh SW -- 30.15 in1021.0 mb 0.00 in0.0 mm 0.00 in0.0 mm 0.00 in0.0 mm
11:35 AM 52.6°F11.4°C 43.7°F6.5°C 72% 3.0 mph SSW4.8 kmh SSW -- 30.15 in1021.0 mb 0.00 in0.0 mm 0.00 in0.0 mm 0.00 in0.0 mm
11:40 AM 52.4°F11.3°C 43.2°F6.2°C 71% 7.0 mph SW11.3 kmh SW -- 30.15 in1021.0 mb 0.00 in0.0 mm 0.00 in0.0 mm 0.00 in0.0 mm
11:45 AM 52.3°F11.3°C 43.9°F6.6°C 73% 6.0 mph S9.7 kmh S -- 30.15 in1021.0 mb 0.00 in0.0 mm 0.00 in0.0 mm 0.00 in0.0 mm
11:50 AM 52.3°F11.3°C 43.5°F6.4°C 72% 4.0 mph SSW6.4 kmh SSW 11.0 mph17.7 kmh 30.15 in1021.0 mb 0.00 in0.0 mm 0.00 in0.0 mm 0.00 in0.0 mm
11:55 AM 52.4°F11.3°C 43.5°F6.4°C 72% 9.0 mph S14.5 kmh S -- 30.15 in1021.0 mb 0.00 in0.0 mm 0.00 in0.0 mm 0.00 in0.0 mm
12:00 PM 52.3°F11.3°C 43.5°F6.4°C 72% 9.0 mph SE14.5 kmh SE -- 30.15 in1021.0 mb 0.00 in0.0 mm 0.00 in0.0 mm 0.00 in0.0 mm
12:05 PM 52.4°F11.3°C 43.5°F6.4°C 72% 2.0 mph SW3.2 kmh SW -- 30.15 in1021.0 mb 0.00 in0.0 mm 0.00 in0.0 mm 0.00 in0.0 mm
12:10 PM 52.4°F11.3°C 43.2°F6.2°C 71% 4.0 mph SSE6.4 kmh SSE -- 30.15 in1021.0 mb 0.00 in0.0 mm 0.00 in0.0 mm 0.00 in0.0 mm
12:15 PM 52.5°F11.4°C 43.3°F6.3°C 71% 4.0 mph S6.4 kmh S 9.0 mph14.5 kmh 30.15 in1021.0 mb 0.00 in0.0 mm 0.00 in0.0 mm 0.00 in0.0 mm
12:20 PM 52.5°F11.4°C 43.3°F6.3°C 71% 7.0 mph WSW11.3 kmh WSW -- 30.15 in1021.0 mb 0.00 in0.0 mm 0.00 in0.0 mm 0.00 in0.0 mm
12:25 PM 52.5°F11.4°C 43.3°F6.3°C 71% 6.0 mph SW9.7 kmh SW -- 30.15 in1021.0 mb 0.00 in0.0 mm 0.00 in0.0 mm 0.00 in0.0 mm
12:30 PM 52.5°F11.4°C 43.3°F6.3°C 71% 9.0 mph SW14.5 kmh SW -- 30.15 in1021.0 mb 0.00 in0.0 mm 0.00 in0.0 mm 0.00 in0.0 mm
12:35 PM 52.5°F11.4°C 43.3°F6.3°C 71% 7.0 mph S11.3 kmh S -- 30.15 in1021.0 mb 0.00 in0.0 mm 0.00 in0.0 mm 0.00 in0.0 mm
12:40 PM 52.5°F11.4°C 43.3°F6.3°C 71% 13.0 mph SW20.9 kmh SW 17.0 mph27.4 kmh 30.14 in1020.7 mb 0.00 in0.0 mm 0.00 in0.0 mm 0.00 in0.0 mm
12:45 PM 52.5°F11.4°C 43.7°F6.5°C 72% 9.0 mph SW14.5 kmh SW -- 30.15 in1021.0 mb 0.00 in0.0 mm 0.00 in0.0 mm 0.00 in0.0 mm
12:50 PM 52.5°F11.4°C 43.3°F6.3°C 71% 6.0 mph WSW9.7 kmh WSW -- 30.14 in1020.7 mb 0.00 in0.0 mm 0.00 in0.0 mm 0.00 in0.0 mm
12:55 PM 52.6°F11.4°C 43.3°F6.3°C 71% 8.0 mph SSE12.9 kmh SSE -- 30.14 in1020.7 mb 0.00 in0.0 mm 0.00 in0.0 mm 0.00 in0.0 mm
01:00 PM 52.6°F11.4°C 43.3°F6.3°C 71% 11.0 mph SW17.7 kmh SW -- 30.14 in1020.7 mb 0.00 in0.0 mm 0.00 in0.0 mm 0.00 in0.0 mm
01:05 PM 52.7°F11.5°C 42.8°F6.0°C 69% 5.0 mph SSW8.0 kmh SSW 14.0 mph22.5 kmh 30.14 in1020.7 mb 0.00 in0.0 mm 0.00 in0.0 mm 0.00 in0.0 mm
01:10 PM 52.8°F11.6°C 43.0°F6.1°C 69% 4.0 mph SW6.4 kmh SW -- 30.14 in1020.7 mb 0.00 in0.0 mm 0.00 in0.0 mm 0.00 in0.0 mm
01:15 PM 52.8°F11.6°C 43.0°F6.1°C 69% 10.0 mph SW16.1 kmh SW -- 30.14 in1020.7 mb 0.00 in0.0 mm 0.00 in0.0 mm 0.00 in0.0 mm
01:20 PM 52.8°F11.6°C 43.0°F6.1°C 69% 3.0 mph WSW4.8 kmh WSW -- 30.14 in1020.7 mb 0.00 in0.0 mm 0.00 in0.0 mm 0.00 in0.0 mm
01:25 PM 52.8°F11.6°C 42.6°F5.9°C 68% 5.0 mph W8.0 kmh W -- 30.14 in1020.7 mb 0.00 in0.0 mm 0.00 in0.0 mm 0.00 in0.0 mm
01:30 PM 52.9°F11.6°C 42.3°F5.7°C 67% 9.0 mph WSW14.5 kmh WSW 15.0 mph24.1 kmh 30.14 in1020.7 mb 0.00 in0.0 mm 0.00 in0.0 mm 0.00 in0.0 mm
01:35 PM 52.9°F11.6°C 42.3°F5.7°C 67% 5.0 mph SW8.0 kmh SW -- 30.14 in1020.7 mb 0.00 in0.0 mm 0.00 in0.0 mm 0.00 in0.0 mm
01:40 PM 52.9°F11.6°C 42.3°F5.7°C 67% 7.0 mph SSW11.3 kmh SSW -- 30.14 in1020.7 mb 0.00 in0.0 mm 0.00 in0.0 mm 0.00 in0.0 mm
01:45 PM 52.8°F11.6°C 42.3°F5.7°C 67% 3.0 mph SSW4.8 kmh SSW -- 30.14 in1020.7 mb 0.00 in0.0 mm 0.00 in0.0 mm 0.00 in0.0 mm
01:50 PM 52.8°F11.6°C 42.3°F5.7°C 67% 7.0 mph SSW11.3 kmh SSW -- 30.14 in1020.7 mb 0.00 in0.0 mm 0.00 in0.0 mm 0.00 in0.0 mm
01:55 PM 52.7°F11.5°C 42.1°F5.6°C 67% 8.0 mph SE12.9 kmh SE 13.0 mph20.9 kmh 30.14 in1020.7 mb 0.00 in0.0 mm 0.00 in0.0 mm 0.00 in0.0 mm
02:00 PM 52.6°F11.4°C 42.3°F5.7°C 68% 3.0 mph SSW4.8 kmh SSW -- 30.14 in1020.7 mb 0.00 in0.0 mm 0.00 in0.0 mm 0.00 in0.0 mm
02:05 PM 52.6°F11.4°C 42.3°F5.7°C 68% 2.0 mph SE3.2 kmh SE -- 30.14 in1020.7 mb 0.00 in0.0 mm 0.00 in0.0 mm 0.00 in0.0 mm
02:10 PM 52.6°F11.4°C 42.3°F5.7°C 68% 1.0 mph SSW1.6 kmh SSW -- 30.13 in1020.3 mb 0.00 in0.0 mm 0.00 in0.0 mm 0.00 in0.0 mm
02:15 PM 52.7°F11.5°C 42.4°F5.8°C 68% 4.0 mph SE6.4 kmh SE -- 30.13 in1020.3 mb 0.00 in0.0 mm 0.00 in0.0 mm 0.00 in0.0 mm
02:20 PM 52.7°F11.5°C 42.4°F5.8°C 68% 17.0 mph SE27.4 kmh SE 14.0 mph22.5 kmh 30.13 in1020.3 mb 0.00 in0.0 mm 0.00 in0.0 mm 0.00 in0.0 mm
02:25 PM 52.7°F11.5°C 42.4°F5.8°C 68% 9.0 mph SSW14.5 kmh SSW -- 30.13 in1020.3 mb 0.00 in0.0 mm 0.00 in0.0 mm 0.00 in0.0 mm
02:30 PM 52.7°F11.5°C 42.4°F5.8°C 68% Calm Calm -- 30.13 in1020.3 mb 0.00 in0.0 mm 0.00 in0.0 mm 0.00 in0.0 mm
02:35 PM 52.7°F11.5°C 42.4°F5.8°C 68% 4.0 mph WSW6.4 kmh WSW -- 30.13 in1020.3 mb 0.00 in0.0 mm 0.00 in0.0 mm 0.00 in0.0 mm
02:40 PM 52.7°F11.5°C 42.4°F5.8°C 68% 9.0 mph SW14.5 kmh SW -- 30.13 in1020.3 mb 0.00 in0.0 mm 0.00 in0.0 mm 0.00 in0.0 mm
02:45 PM 52.7°F11.5°C 42.4°F5.8°C 68% 4.0 mph SW6.4 kmh SW 14.0 mph22.5 kmh 30.13 in1020.3 mb 0.00 in0.0 mm 0.00 in0.0 mm 0.00 in0.0 mm
02:50 PM 52.7°F11.5°C 42.4°F5.8°C 68% 13.0 mph SSW20.9 kmh SSW -- 30.13 in1020.3 mb 0.00 in0.0 mm 0.00 in0.0 mm 0.00 in0.0 mm
02:55 PM 52.6°F11.4°C 42.3°F5.7°C 68% 14.0 mph S22.5 kmh S -- 30.13 in1020.3 mb 0.00 in0.0 mm 0.00 in0.0 mm 0.00 in0.0 mm
03:00 PM 52.7°F11.5°C 42.1°F5.6°C 67% 6.0 mph SW9.7 kmh SW -- 30.13 in1020.3 mb 0.00 in0.0 mm 0.00 in0.0 mm 0.00 in0.0 mm
03:05 PM 52.7°F11.5°C 42.4°F5.8°C 68% 4.0 mph SSW6.4 kmh SSW -- 30.13 in1020.3 mb 0.00 in0.0 mm 0.00 in0.0 mm 0.00 in0.0 mm
03:10 PM 52.6°F11.4°C 42.6°F5.9°C 69% 5.0 mph SSW8.0 kmh SSW 14.0 mph22.5 kmh 30.13 in1020.3 mb 0.00 in0.0 mm 0.00 in0.0 mm 0.00 in0.0 mm
03:15 PM 52.3°F11.3°C 43.2°F6.2°C 71% 3.0 mph SW4.8 kmh SW -- 30.13 in1020.3 mb 0.00 in0.0 mm 0.00 in0.0 mm 0.00 in0.0 mm
03:20 PM 51.8°F11.0°C 43.3°F6.3°C 73% 4.0 mph SW6.4 kmh SW -- 30.13 in1020.3 mb 0.00 in0.0 mm 0.00 in0.0 mm 0.00 in0.0 mm
03:25 PM 51.5°F10.8°C 43.7°F6.5°C 75% 7.0 mph S11.3 kmh S -- 30.13 in1020.3 mb 0.00 in0.0 mm 0.00 in0.0 mm 0.00 in0.0 mm
03:30 PM 51.3°F10.7°C 43.5°F6.4°C 75% 8.0 mph SSW12.9 kmh SSW -- 30.14 in1020.7 mb 0.01 in0.3 mm 0.12 in3.0 mm 0.01 in0.3 mm
03:35 PM 51.2°F10.7°C 43.9°F6.6°C 76% 2.0 mph SW3.2 kmh SW 10.0 mph16.1 kmh 30.14 in1020.7 mb 0.01 in0.3 mm 0.00 in0.0 mm 0.01 in0.3 mm
03:40 PM 51.0°F10.6°C 43.7°F6.5°C 76% 6.0 mph SW9.7 kmh SW -- 30.14 in1020.7 mb 0.01 in0.3 mm 0.00 in0.0 mm 0.01 in0.3 mm
03:45 PM 50.9°F10.5°C 43.5°F6.4°C 76% 9.0 mph SSW14.5 kmh SSW -- 30.13 in1020.3 mb 0.01 in0.3 mm 0.00 in0.0 mm 0.01 in0.3 mm
03:50 PM 50.8°F10.4°C 43.7°F6.5°C 77% 8.0 mph WSW12.9 kmh WSW -- 30.13 in1020.3 mb 0.01 in0.3 mm 0.00 in0.0 mm 0.01 in0.3 mm
03:55 PM 50.7°F10.4°C 43.7°F6.5°C 77% 5.0 mph SW8.0 kmh SW -- 30.14 in1020.7 mb 0.01 in0.3 mm 0.00 in0.0 mm 0.01 in0.3 mm
04:00 PM 50.7°F10.4°C 43.7°F6.5°C 77% 4.0 mph SSW6.4 kmh SSW 13.0 mph20.9 kmh 30.14 in1020.7 mb 0.01 in0.3 mm 0.00 in0.0 mm 0.01 in0.3 mm
04:05 PM 50.7°F10.4°C 43.7°F6.5°C 77% 6.0 mph SSW9.7 kmh SSW -- 30.14 in1020.7 mb 0.01 in0.3 mm 0.00 in0.0 mm 0.01 in0.3 mm
04:10 PM 50.8°F10.4°C 44.1°F6.7°C 78% 2.0 mph WSW3.2 kmh WSW -- 30.13 in1020.3 mb 0.01 in0.3 mm 0.00 in0.0 mm 0.01 in0.3 mm
04:15 PM 50.8°F10.4°C 43.7°F6.5°C 77% 2.0 mph S3.2 kmh S -- 30.13 in1020.3 mb 0.02 in0.5 mm 0.12 in3.0 mm 0.02 in0.5 mm
04:20 PM 50.9°F10.5°C 43.9°F6.6°C 77% 2.0 mph SW3.2 kmh SW -- 30.13 in1020.3 mb 0.02 in0.5 mm 0.00 in0.0 mm 0.02 in0.5 mm
04:25 PM 51.1°F10.6°C 43.7°F6.5°C 76% 6.0 mph WSW9.7 kmh WSW 20.0 mph32.2 kmh 30.13 in1020.3 mb 0.02 in0.5 mm 0.00 in0.0 mm 0.02 in0.5 mm
04:30 PM 51.1°F10.6°C 44.1°F6.7°C 77% 3.0 mph S4.8 kmh S -- 30.13 in1020.3 mb 0.01 in0.3 mm 0.00 in0.0 mm 0.02 in0.5 mm
04:35 PM 51.2°F10.7°C 43.9°F6.6°C 76% 11.0 mph SW17.7 kmh SW -- 30.13 in1020.3 mb 0.01 in0.3 mm 0.00 in0.0 mm 0.02 in0.5 mm
04:40 PM 51.2°F10.7°C 43.9°F6.6°C 76% 1.0 mph SW1.6 kmh SW -- 30.13 in1020.3 mb 0.01 in0.3 mm 0.00 in0.0 mm 0.02 in0.5 mm
04:45 PM 51.3°F10.7°C 43.9°F6.6°C 76% 8.0 mph S12.9 kmh S -- 30.13 in1020.3 mb 0.01 in0.3 mm 0.00 in0.0 mm 0.02 in0.5 mm
04:50 PM 51.3°F10.7°C 44.2°F6.8°C 77% 9.0 mph SW14.5 kmh SW 15.0 mph24.1 kmh 30.13 in1020.3 mb 0.01 in0.3 mm 0.00 in0.0 mm 0.02 in0.5 mm
04:55 PM 51.4°F10.8°C 44.4°F6.9°C 77% 4.0 mph W6.4 kmh W -- 30.13 in1020.3 mb 0.01 in0.3 mm 0.00 in0.0 mm 0.02 in0.5 mm
05:00 PM 51.4°F10.8°C 44.4°F6.9°C 77% 10.0 mph S16.1 kmh S -- 30.13 in1020.3 mb 0.01 in0.3 mm 0.00 in0.0 mm 0.02 in0.5 mm
05:05 PM 51.5°F10.8°C 44.4°F6.9°C 77% 14.0 mph SW22.5 kmh SW -- 30.13 in1020.3 mb 0.01 in0.3 mm 0.00 in0.0 mm 0.02 in0.5 mm
05:10 PM 51.7°F10.9°C 44.2°F6.8°C 76% 4.0 mph SW6.4 kmh SW -- 30.13 in1020.3 mb 0.01 in0.3 mm 0.00 in0.0 mm 0.02 in0.5 mm
05:15 PM 51.5°F10.8°C 44.4°F6.9°C 77% 4.0 mph S6.4 kmh S 16.0 mph25.7 kmh 30.13 in1020.3 mb 0.00 in0.0 mm 0.00 in0.0 mm 0.02 in0.5 mm
05:20 PM 51.7°F10.9°C 44.2°F6.8°C 76% 4.0 mph SSW6.4 kmh SSW -- 30.13 in1020.3 mb 0.00 in0.0 mm 0.00 in0.0 mm 0.02 in0.5 mm
05:25 PM 51.9°F11.1°C 44.6°F7.0°C 76% 8.0 mph SSW12.9 kmh SSW -- 30.13 in1020.3 mb 0.00 in0.0 mm 0.00 in0.0 mm 0.02 in0.5 mm
05:30 PM 52.0°F11.1°C 44.2°F6.8°C 75% 11.0 mph SW17.7 kmh SW -- 30.13 in1020.3 mb 0.00 in0.0 mm 0.00 in0.0 mm 0.02 in0.5 mm
05:35 PM 52.2°F11.2°C 43.7°F6.5°C 73% 8.0 mph S12.9 kmh S -- 30.13 in1020.3 mb 0.00 in0.0 mm 0.00 in0.0 mm 0.02 in0.5 mm
05:40 PM 52.3°F11.3°C 43.5°F6.4°C 72% 9.0 mph SSW14.5 kmh SSW 20.0 mph32.2 kmh 30.13 in1020.3 mb 0.00 in0.0 mm 0.00 in0.0 mm 0.02 in0.5 mm
05:45 PM 52.3°F11.3°C 43.5°F6.4°C 72% 6.0 mph SW9.7 kmh SW -- 30.13 in1020.3 mb 0.00 in0.0 mm 0.00 in0.0 mm 0.02 in0.5 mm
05:50 PM 52.2°F11.2°C 43.7°F6.5°C 73% 3.0 mph S4.8 kmh S -- 30.13 in1020.3 mb 0.00 in0.0 mm 0.00 in0.0 mm 0.02 in0.5 mm
05:55 PM 52.1°F11.2°C 43.7°F6.5°C 73% 6.0 mph WSW9.7 kmh WSW -- 30.13 in1020.3 mb 0.00 in0.0 mm 0.00 in0.0 mm 0.02 in0.5 mm
06:00 PM 52.3°F11.3°C 43.9°F6.6°C 73% 3.0 mph S4.8 kmh S -- 30.13 in1020.3 mb 0.00 in0.0 mm 0.00 in0.0 mm 0.02 in0.5 mm
06:05 PM 52.3°F11.3°C 43.9°F6.6°C 73% 9.0 mph SW14.5 kmh SW 14.0 mph22.5 kmh 30.13 in1020.3 mb 0.00 in0.0 mm 0.00 in0.0 mm 0.02 in0.5 mm
06:10 PM 52.3°F11.3°C 43.9°F6.6°C 73% 6.0 mph SW9.7 kmh SW -- 30.13 in1020.3 mb 0.00 in0.0 mm 0.00 in0.0 mm 0.02 in0.5 mm
06:15 PM 52.2°F11.2°C 43.7°F6.5°C 73% 5.0 mph SW8.0 kmh SW -- 30.14 in1020.7 mb 0.00 in0.0 mm 0.00 in0.0 mm 0.02 in0.5 mm
06:20 PM 52.2°F11.2°C 44.1°F6.7°C 74% 4.0 mph SSE6.4 kmh SSE -- 30.13 in1020.3 mb 0.00 in0.0 mm 0.00 in0.0 mm 0.02 in0.5 mm
06:25 PM 52.2°F11.2°C 44.1°F6.7°C 74% 8.0 mph S12.9 kmh S -- 30.13 in1020.3 mb 0.00 in0.0 mm 0.00 in0.0 mm 0.02 in0.5 mm
06:30 PM 52.2°F11.2°C 44.4°F6.9°C 75% 6.0 mph SE9.7 kmh SE 18.0 mph29.0 kmh 30.13 in1020.3 mb 0.00 in0.0 mm 0.00 in0.0 mm 0.02 in0.5 mm
06:35 PM 52.1°F11.2°C 44.4°F6.9°C 75% 9.0 mph S14.5 kmh S -- 30.14 in1020.7 mb 0.00 in0.0 mm 0.00 in0.0 mm 0.02 in0.5 mm
06:40 PM 52.1°F11.2°C 44.8°F7.1°C 76% 6.0 mph SSW9.7 kmh SSW -- 30.14 in1020.7 mb 0.00 in0.0 mm 0.00 in0.0 mm 0.02 in0.5 mm
06:45 PM 51.9°F11.1°C 44.6°F7.0°C 76% 2.0 mph SSE3.2 kmh SSE -- 30.14 in1020.7 mb 0.01 in0.3 mm 0.12 in3.0 mm 0.02 in0.5 mm
06:50 PM 51.8°F11.0°C 44.8°F7.1°C 77% 5.0 mph SW8.0 kmh SW -- 30.13 in1020.3 mb 0.01 in0.3 mm 0.00 in0.0 mm 0.02 in0.5 mm
06:55 PM 51.7°F10.9°C 44.6°F7.0°C 77% 3.0 mph SW4.8 kmh SW 10.0 mph16.1 kmh 30.13 in1020.3 mb 0.01 in0.3 mm 0.00 in0.0 mm 0.02 in0.5 mm
07:00 PM 51.7°F10.9°C 44.6°F7.0°C 77% 1.0 mph S1.6 kmh S -- 30.13 in1020.3 mb 0.01 in0.3 mm 0.00 in0.0 mm 0.02 in0.5 mm
07:05 PM 51.9°F11.1°C 45.0°F7.2°C 77% 4.0 mph SW6.4 kmh SW -- 30.13 in1020.3 mb 0.01 in0.3 mm 0.00 in0.0 mm 0.02 in0.5 mm
07:10 PM 52.0°F11.1°C 45.0°F7.2°C 77% 5.0 mph SSE8.0 kmh SSE -- 30.12 in1020.0 mb 0.01 in0.3 mm 0.00 in0.0 mm 0.02 in0.5 mm
07:15 PM 51.8°F11.0°C 45.1°F7.3°C 78% 4.0 mph S6.4 kmh S -- 30.12 in1020.0 mb 0.01 in0.3 mm 0.00 in0.0 mm 0.02 in0.5 mm
07:20 PM 52.1°F11.2°C 45.1°F7.3°C 77% 8.0 mph SSE12.9 kmh SSE 14.0 mph22.5 kmh 30.12 in1020.0 mb 0.01 in0.3 mm 0.00 in0.0 mm 0.02 in0.5 mm
07:25 PM 52.3°F11.3°C 45.3°F7.4°C 77% 5.0 mph SSW8.0 kmh SSW -- 30.13 in1020.3 mb 0.01 in0.3 mm 0.00 in0.0 mm 0.02 in0.5 mm
07:30 PM 52.5°F11.4°C 45.1°F7.3°C 76% 11.0 mph SE17.7 kmh SE -- 30.13 in1020.3 mb 0.01 in0.3 mm 0.00 in0.0 mm 0.02 in0.5 mm
07:35 PM 52.6°F11.4°C 45.1°F7.3°C 76% 3.0 mph SW4.8 kmh SW -- 30.12 in1020.0 mb 0.01 in0.3 mm 0.00 in0.0 mm 0.02 in0.5 mm
07:40 PM 52.8°F11.6°C 45.1°F7.3°C 75% 13.0 mph SSE20.9 kmh SSE -- 30.12 in1020.0 mb 0.01 in0.3 mm 0.00 in0.0 mm 0.02 in0.5 mm
07:45 PM 53.1°F11.7°C 45.0°F7.2°C 74% 7.0 mph S11.3 kmh S 20.0 mph32.2 kmh 30.12 in1020.0 mb 0.00 in0.0 mm 0.00 in0.0 mm 0.02 in0.5 mm
07:50 PM 53.1°F11.7°C 45.0°F7.2°C 74% 7.0 mph SE11.3 kmh SE -- 30.12 in1020.0 mb 0.00 in0.0 mm 0.00 in0.0 mm 0.02 in0.5 mm
07:55 PM 53.2°F11.8°C 44.8°F7.1°C 73% 5.0 mph SE8.0 kmh SE -- 30.12 in1020.0 mb 0.00 in0.0 mm 0.00 in0.0 mm 0.02 in0.5 mm
08:00 PM 53.2°F11.8°C 45.1°F7.3°C 74% 5.0 mph S8.0 kmh S -- 30.12 in1020.0 mb 0.00 in0.0 mm 0.00 in0.0 mm 0.02 in0.5 mm
08:05 PM 53.2°F11.8°C 45.1°F7.3°C 74% 10.0 mph S16.1 kmh S -- 30.12 in1020.0 mb 0.00 in0.0 mm 0.00 in0.0 mm 0.02 in0.5 mm
08:10 PM 53.2°F11.8°C 45.1°F7.3°C 74% 5.0 mph SE8.0 kmh SE 12.0 mph19.3 kmh 30.12 in1020.0 mb 0.00 in0.0 mm 0.00 in0.0 mm 0.02 in0.5 mm
08:15 PM 53.2°F11.8°C 45.1°F7.3°C 74% 10.0 mph S16.1 kmh S -- 30.12 in1020.0 mb 0.00 in0.0 mm 0.00 in0.0 mm 0.02 in0.5 mm
08:20 PM 53.2°F11.8°C 45.1°F7.3°C 74% 12.0 mph SW19.3 kmh SW -- 30.12 in1020.0 mb 0.00 in0.0 mm 0.00 in0.0 mm 0.02 in0.5 mm
08:25 PM 53.2°F11.8°C 45.1°F7.3°C 74% 8.0 mph S12.9 kmh S -- 30.12 in1020.0 mb 0.00 in0.0 mm 0.00 in0.0 mm 0.02 in0.5 mm
08:30 PM 53.2°F11.8°C 45.1°F7.3°C 74% 5.0 mph WSW8.0 kmh WSW -- 30.12 in1020.0 mb 0.00 in0.0 mm 0.00 in0.0 mm 0.02 in0.5 mm
08:35 PM 53.2°F11.8°C 45.1°F7.3°C 74% 4.0 mph SSW6.4 kmh SSW 12.0 mph19.3 kmh 30.12 in1020.0 mb 0.00 in0.0 mm 0.00 in0.0 mm 0.02 in0.5 mm
08:40 PM 53.2°F11.8°C 45.1°F7.3°C 74% 4.0 mph WSW6.4 kmh WSW -- 30.12 in1020.0 mb 0.00 in0.0 mm 0.00 in0.0 mm 0.02 in0.5 mm
08:45 PM 53.3°F11.8°C 45.1°F7.3°C 74% 9.0 mph WSW14.5 kmh WSW -- 30.12 in1020.0 mb 0.00 in0.0 mm 0.00 in0.0 mm 0.02 in0.5 mm
08:50 PM 53.3°F11.8°C 45.1°F7.3°C 74% Calm Calm -- 30.12 in1020.0 mb 0.00 in0.0 mm 0.00 in0.0 mm 0.02 in0.5 mm
08:55 PM 53.3°F11.8°C 44.8°F7.1°C 73% 9.0 mph S14.5 kmh S -- 30.12 in1020.0 mb 0.00 in0.0 mm 0.00 in0.0 mm 0.02 in0.5 mm
09:00 PM 53.4°F11.9°C 45.0°F7.2°C 73% 5.0 mph SW8.0 kmh SW 17.0 mph27.4 kmh 30.12 in1020.0 mb 0.00 in0.0 mm 0.00 in0.0 mm 0.02 in0.5 mm
09:05 PM 53.5°F11.9°C 44.6°F7.0°C 72% 6.0 mph WSW9.7 kmh WSW -- 30.12 in1020.0 mb 0.00 in0.0 mm 0.00 in0.0 mm 0.02 in0.5 mm
09:10 PM 53.5°F11.9°C 44.6°F7.0°C 72% 6.0 mph SSE9.7 kmh SSE -- 30.12 in1020.0 mb 0.00 in0.0 mm 0.00 in0.0 mm 0.02 in0.5 mm
09:15 PM 53.4°F11.9°C 44.6°F7.0°C 72% 7.0 mph WSW11.3 kmh WSW -- 30.12 in1020.0 mb 0.00 in0.0 mm 0.00 in0.0 mm 0.02 in0.5 mm
09:20 PM 53.5°F11.9°C 44.2°F6.8°C 71% 5.0 mph SSW8.0 kmh SSW -- 30.12 in1020.0 mb 0.00 in0.0 mm 0.00 in0.0 mm 0.02 in0.5 mm
09:25 PM 53.6°F12.0°C 44.4°F6.9°C 71% 3.0 mph SW4.8 kmh SW 21.0 mph33.8 kmh 30.12 in1020.0 mb 0.00 in0.0 mm 0.00 in0.0 mm 0.02 in0.5 mm
09:30 PM 53.5°F11.9°C 44.2°F6.8°C 71% 9.0 mph SW14.5 kmh SW -- 30.11 in1019.6 mb 0.00 in0.0 mm 0.00 in0.0 mm 0.02 in0.5 mm
09:35 PM 53.5°F11.9°C 44.2°F6.8°C 71% 12.0 mph S19.3 kmh S -- 30.12 in1020.0 mb 0.00 in0.0 mm 0.00 in0.0 mm 0.02 in0.5 mm
09:40 PM 53.6°F12.0°C 44.1°F6.7°C 70% 4.0 mph S6.4 kmh S -- 30.11 in1019.6 mb 0.00 in0.0 mm 0.00 in0.0 mm 0.02 in0.5 mm
09:45 PM 53.6°F12.0°C 44.1°F6.7°C 70% 13.0 mph WSW20.9 kmh WSW -- 30.11 in1019.6 mb 0.00 in0.0 mm 0.00 in0.0 mm 0.02 in0.5 mm
09:50 PM 53.7°F12.1°C 43.9°F6.6°C 69% 11.0 mph S17.7 kmh S 22.0 mph35.4 kmh 30.11 in1019.6 mb 0.00 in0.0 mm 0.00 in0.0 mm 0.02 in0.5 mm
09:55 PM 53.7°F12.1°C 43.9°F6.6°C 69% 14.0 mph S22.5 kmh S -- 30.11 in1019.6 mb 0.00 in0.0 mm 0.00 in0.0 mm 0.02 in0.5 mm
10:00 PM 53.9°F12.2°C 44.1°F6.7°C 69% 6.0 mph SW9.7 kmh SW -- 30.12 in1020.0 mb 0.00 in0.0 mm 0.00 in0.0 mm 0.02 in0.5 mm
10:05 PM 53.8°F12.1°C 43.9°F6.6°C 69% 3.0 mph NE4.8 kmh NE -- 30.11 in1019.6 mb 0.00 in0.0 mm 0.00 in0.0 mm 0.02 in0.5 mm
10:10 PM 53.7°F12.1°C 43.9°F6.6°C 69% 6.0 mph E9.7 kmh E -- 30.11 in1019.6 mb 0.00 in0.0 mm 0.00 in0.0 mm 0.02 in0.5 mm
10:15 PM 53.8°F12.1°C 43.5°F6.4°C 68% 3.0 mph WSW4.8 kmh WSW 19.0 mph30.6 kmh 30.12 in1020.0 mb 0.00 in0.0 mm 0.00 in0.0 mm 0.02 in0.5 mm
10:20 PM 53.8°F12.1°C 43.5°F6.4°C 68% 2.0 mph S3.2 kmh S -- 30.12 in1020.0 mb 0.00 in0.0 mm 0.00 in0.0 mm 0.02 in0.5 mm
10:25 PM 53.8°F12.1°C 43.9°F6.6°C 69% 14.0 mph ESE22.5 kmh ESE -- 30.12 in1020.0 mb 0.00 in0.0 mm 0.00 in0.0 mm 0.02 in0.5 mm
10:30 PM 53.8°F12.1°C 43.5°F6.4°C 68% 7.0 mph E11.3 kmh E -- 30.12 in1020.0 mb 0.00 in0.0 mm 0.00 in0.0 mm 0.02 in0.5 mm
10:35 PM 53.9°F12.2°C 44.1°F6.7°C 69% 7.0 mph S11.3 kmh S -- 30.12 in1020.0 mb 0.00 in0.0 mm 0.00 in0.0 mm 0.02 in0.5 mm
10:40 PM 53.7°F12.1°C 43.9°F6.6°C 69% 12.0 mph S19.3 kmh S 21.0 mph33.8 kmh 30.12 in1020.0 mb 0.00 in0.0 mm 0.00 in0.0 mm 0.02 in0.5 mm
10:45 PM 53.6°F12.0°C 43.7°F6.5°C 69% 7.0 mph SSE11.3 kmh SSE -- 30.13 in1020.3 mb 0.00 in0.0 mm 0.00 in0.0 mm 0.02 in0.5 mm
10:50 PM 53.5°F11.9°C 43.5°F6.4°C 69% 5.0 mph ESE8.0 kmh ESE -- 30.12 in1020.0 mb 0.00 in0.0 mm 0.00 in0.0 mm 0.02 in0.5 mm
10:55 PM 53.7°F12.1°C 43.2°F6.2°C 67% 4.0 mph SSE6.4 kmh SSE -- 30.12 in1020.0 mb 0.00 in0.0 mm 0.00 in0.0 mm 0.02 in0.5 mm
11:00 PM 53.9°F12.2°C 43.3°F6.3°C 67% 6.0 mph ESE9.7 kmh ESE -- 30.12 in1020.0 mb 0.00 in0.0 mm 0.00 in0.0 mm 0.03 in0.8 mm
11:05 PM 54.0°F12.2°C 43.3°F6.3°C 67% 8.0 mph SW12.9 kmh SW 18.0 mph29.0 kmh 30.12 in1020.0 mb 0.00 in0.0 mm 0.00 in0.0 mm 0.03 in0.8 mm
11:10 PM 53.9°F12.2°C 42.8°F6.0°C 66% 12.0 mph SE19.3 kmh SE -- 30.12 in1020.0 mb 0.00 in0.0 mm 0.00 in0.0 mm 0.03 in0.8 mm
11:15 PM 53.9°F12.2°C 42.8°F6.0°C 66% 4.0 mph SE6.4 kmh SE -- 30.12 in1020.0 mb 0.00 in0.0 mm 0.00 in0.0 mm 0.03 in0.8 mm
11:20 PM 54.0°F12.2°C 42.4°F5.8°C 65% 7.0 mph E11.3 kmh E -- 30.12 in1020.0 mb 0.00 in0.0 mm 0.00 in0.0 mm 0.03 in0.8 mm
11:25 PM 53.9°F12.2°C 42.8°F6.0°C 66% 13.0 mph SE20.9 kmh SE -- 30.13 in1020.3 mb 0.00 in0.0 mm 0.00 in0.0 mm 0.03 in0.8 mm
11:30 PM 54.1°F12.3°C 42.3°F5.7°C 64% 10.0 mph SE16.1 kmh SE 21.0 mph33.8 kmh 30.13 in1020.3 mb 0.00 in0.0 mm 0.00 in0.0 mm 0.03 in0.8 mm
11:35 PM 54.2°F12.3°C 42.3°F5.7°C 64% Calm Calm -- 30.13 in1020.3 mb 0.00 in0.0 mm 0.00 in0.0 mm 0.03 in0.8 mm
11:40 PM 54.0°F12.2°C 42.1°F5.6°C 64% 2.0 mph SE3.2 kmh SE -- 30.13 in1020.3 mb 0.00 in0.0 mm 0.00 in0.0 mm 0.03 in0.8 mm
11:45 PM 54.0°F12.2°C 41.7°F5.4°C 63% 1.0 mph S1.6 kmh S -- 30.13 in1020.3 mb 0.00 in0.0 mm 0.00 in0.0 mm 0.03 in0.8 mm
11:50 PM 54.0°F12.2°C 41.7°F5.4°C 63% 3.0 mph S4.8 kmh S -- 30.13 in1020.3 mb 0.00 in0.0 mm 0.00 in0.0 mm 0.03 in0.8 mm
11:55 PM 54.1°F12.3°C 41.4°F5.2°C 62% 6.0 mph SE9.7 kmh SE 14.0 mph22.5 kmh 30.13 in1020.3 mb 0.00 in0.0 mm 0.00 in0.0 mm 0.03 in0.8 mm